»·PEaware :: N442WF 55S-KBFI

N442WF :: 55S-KBFI

FLIGHT INFORMATION

Flight Status: Arrived
Operator: Privately registered:
United States
More flights under this callsign
Pilot: Brandon F. (14792)
Aircraft: Unknown
(PIPA)
More flights by this aircraft type
Origin: 55S Packwood
United States
Destination: KBFI Boeing Field/King Co Intl
United States
More flights between these airports :: More routes between these airports
Route: 55S V4 SEA KBFI
File this flight plan on PilotEdge
Remarks:
Altitude:
(Current/Filed)
8,000ft
Speed:
(Current/Filed)
180kts
Departed: 05-Jan-18 08:50 PM
Arrived: 05-Jan-18 09:34 PM
Distance/Time
Traveled:
61nm/0:43
Distance/Time
To Go:
Arrived

Flight Plot

Page will automatically refresh every two minutes.

Flight plan parsing failed; only flown route is shown


Map Options




Map Legend


Flown Route
Filed Route
Departure Airport
Arrival Airport
Navaid (VOR, NDB)
Fix

Horizontal Profiles

Position Reports

Time Latitude Longitude Heading Altitude Ground
Speed
05-Jan-18 20:50 46.605023 -121.676216 292 1056ft 0kts
05-Jan-18 20:51 46.605023 -121.676216 292 1056ft 0kts
05-Jan-18 20:52 46.605023 -121.676216 292 1056ft 0kts
05-Jan-18 20:53 46.605197 -121.676718 297 1056ft 7kts
05-Jan-18 20:54 46.601689 -121.679930 211 1056ft 9kts
05-Jan-18 20:55 46.601575 -121.680028 25 1056ft 11kts
05-Jan-18 20:56 46.623658 -121.665772 6 1762ft 108kts
05-Jan-18 20:57 46.651317 -121.679951 330 2946ft 101kts
05-Jan-18 20:58 46.676807 -121.701078 325 3879ft 106kts
05-Jan-18 20:59 46.702359 -121.717890 353 4828ft 102kts
05-Jan-18 21:00 46.730944 -121.717865 351 5663ft 103kts
05-Jan-18 21:01 46.759680 -121.713488 23 6481ft 124kts
05-Jan-18 21:02 46.788473 -121.688997 16 6171ft 166kts
05-Jan-18 21:03 46.796046 -121.651163 128 4104ft 200kts
05-Jan-18 21:04 46.795257 -121.620866 347 4849ft 99kts
05-Jan-18 21:05 46.789665 -121.595301 49 5737ft 121kts
05-Jan-18 21:06 46.817654 -121.575004 8 6437ft 111kts
05-Jan-18 21:07 46.847206 -121.559686 8 7512ft 116kts
05-Jan-18 21:08 46.886337 -121.540421 8 7765ft 172kts
05-Jan-18 21:09 46.933837 -121.519401 8 7762ft 183kts
05-Jan-18 21:10 46.982985 -121.498033 8 7762ft 186kts
05-Jan-18 21:11 47.031173 -121.499797 338 7762ft 173kts
05-Jan-18 21:12 47.076085 -121.521663 303 7756ft 163kts
05-Jan-18 21:13 47.083492 -121.537361 300 7755ft 169kts
05-Jan-18 21:14 47.105296 -121.584104 300 7764ft 186kts
05-Jan-18 21:15 47.134976 -121.648158 300 7762ft 191kts
05-Jan-18 21:16 47.164739 -121.712774 300 7762ft 192kts
05-Jan-18 21:17 47.194650 -121.778011 300 7762ft 192kts
05-Jan-18 21:18 47.224367 -121.843266 300 7762ft 192kts
05-Jan-18 21:19 47.257556 -121.900401 325 7762ft 196kts
05-Jan-18 21:20 47.303308 -121.942116 325 7762ft 193kts
05-Jan-18 21:21 47.348895 -121.983662 325 7762ft 193kts
05-Jan-18 21:22 47.394505 -122.025293 325 7463ft 190kts
05-Jan-18 21:23 47.431024 -122.058816 325 6958ft 186kts
05-Jan-18 21:24 47.481492 -122.105750 325 6053ft 188kts
05-Jan-18 21:25 47.524411 -122.146232 325 5281ft 187kts
05-Jan-18 21:26 47.560146 -122.180312 325 4629ft 186kts
05-Jan-18 21:27 47.609728 -122.228251 325 3703ft 184kts
05-Jan-18 21:28 47.644154 -122.261918 325 2997ft 185kts
05-Jan-18 21:29 47.683310 -122.300636 325 2210ft 161kts
05-Jan-18 21:30 47.719574 -122.336352 325 2194ft 119kts
05-Jan-18 21:31 47.728667 -122.368178 228 2206ft 131kts
05-Jan-18 21:32 47.701907 -122.410483 225 2201ft 149kts
05-Jan-18 21:33 47.665120 -122.417091 151 2193ft 134kts
05-Jan-18 21:34 47.640032 -122.395789 151 2198ft 103kts
05-Jan-18 21:35 47.616947 -122.376180 151 1759ft 96kts
05-Jan-18 21:36 47.594512 -122.357309 151 1257ft 89kts
05-Jan-18 21:37 47.576571 -122.342090 149 792ft 69kts
05-Jan-18 21:38 47.559630 -122.327406 150 442ft 70kts
05-Jan-18 21:39 47.543089 -122.313461 150 89ft 67kts
05-Jan-18 21:40 47.533871 -122.306242 222 23ft 8kts
05-Jan-18 21:41 47.533194 -122.307873 237 23ft 11kts

Navigation Log

Ident Type
Flight plan parsing failed, navigation log unavailable